Time;durP1;ratioP1;P1;durP2;ratioP2;P2;SDS_P1;SDS_P2;PMS_P1;PMS_P2;Temp;Humidity;BMP_temperature;BMP_pressure;BME280_temperature;BME280_humidity;BME280_pressure;Samples;Min_cycle;Max_cycle;Signal;HPM_P1;HPM_P2
2021/12/30 00:05:26;;;;;;;6.05;3.40;;;;;;;6.92;76.45;97255.84;12422790;23;20067;-78
2021/12/30 00:11:15;;;;;;;7.05;3.50;;;;;;;6.93;76.59;97262.88;12471743;23;20028;-78
2021/12/30 00:16:37;;;;;;;7.35;3.97;;;;;;;6.93;76.37;97251.03;12461215;23;20094;-78
2021/12/30 00:22:00;;;;;;;6.63;3.50;;;;;;;6.94;76.77;97266.38;12441742;23;20031;-78
2021/12/30 00:27:22;;;;;;;6.57;3.67;;;;;;;6.93;76.42;97257.31;12442426;23;20339;-79
2021/12/30 00:32:43;;;;;;;9.07;3.72;;;;;;;6.91;76.65;97248.13;12460730;23;20019;-79
2021/12/30 00:38:07;;;;;;;5.88;3.45;;;;;;;6.87;76.73;97248.56;12460843;23;20380;-78
2021/12/30 00:43:36;;;;;;;6.45;3.38;;;;;;;6.86;76.66;97266.53;12463956;23;20027;-78
2021/12/30 00:49:03;;;;;;;6.53;2.92;;;;;;;6.93;77.03;97276.00;12463202;23;20019;-77
2021/12/30 00:54:24;;;;;;;7.75;3.58;;;;;;;6.88;77.13;97270.19;12461002;23;20457;-78
2021/12/30 01:00:15;;;;;;;6.38;3.53;;;;;;;6.87;76.91;97262.44;12471130;23;20498;-78
2021/12/30 01:05:36;;;;;;;8.02;3.50;;;;;;;6.91;76.94;97262.72;12460948;23;20330;-77
2021/12/30 01:10:58;;;;;;;5.93;3.00;;;;;;;6.88;77.06;97280.53;12479460;23;20095;-78
2021/12/30 01:16:23;;;;;;;5.68;2.85;;;;;;;6.91;76.85;97279.38;12461156;23;20019;-77
2021/12/30 01:21:44;;;;;;;8.10;3.22;;;;;;;6.96;76.99;97288.75;12441546;23;20026;-77
2021/12/30 01:27:39;;;;;;;7.80;3.30;;;;;;;7.02;77.22;97289.91;12472970;23;20032;-77
2021/12/30 01:33:04;;;;;;;6.80;2.90;;;;;;;7.06;77.73;97281.88;12461502;23;20019;-77
2021/12/30 01:38:54;;;;;;;5.65;2.65;;;;;;;7.11;78.16;97296.78;12457354;23;20031;-77
2021/12/30 01:44:44;;;;;;;6.18;2.80;;;;;;;7.15;78.13;97297.81;12456804;23;20023;-77
2021/12/30 01:50:06;;;;;;;3.35;2.15;;;;;;;7.17;78.16;97281.31;12460709;23;20015;-79
2021/12/30 01:55:30;;;;;;;3.53;1.70;;;;;;;7.17;78.14;97286.13;12459397;23;20026;-80
2021/12/30 02:00:53;;;;;;;2.85;1.63;;;;;;;7.11;77.85;97272.53;12460120;23;20067;-78
2021/12/30 02:06:14;;;;;;;2.50;1.25;;;;;;;7.08;78.39;97286.84;12439602;23;20019;-77
2021/12/30 02:11:37;;;;;;;2.00;1.13;;;;;;;7.10;78.36;97290.50;12459204;23;20016;-77
2021/12/30 02:17:08;;;;;;;1.83;1.00;;;;;;;7.16;78.48;97298.56;12479832;23;20019;-77
2021/12/30 02:22:34;;;;;;;2.58;1.00;;;;;;;7.14;78.54;97299.13;12442163;23;20454;-77
2021/12/30 02:27:57;;;;;;;2.20;1.10;;;;;;;7.14;78.59;97310.25;12439475;23;20030;-77
2021/12/30 02:33:18;;;;;;;3.50;1.92;;;;;;;7.18;79.38;97310.53;12458177;23;20086;-78
2021/12/30 02:38:44;;;;;;;1.50;0.88;;;;;;;7.23;78.93;97330.25;12439177;23;20035;-78
2021/12/30 02:44:06;;;;;;;1.60;0.98;;;;;;;7.23;78.84;97322.66;12441168;23;20094;-78
2021/12/30 02:49:29;;;;;;;1.90;0.90;;;;;;;7.25;78.69;97317.25;12458908;23;20023;-78
2021/12/30 02:54:52;;;;;;;2.13;0.93;;;;;;;7.23;79.16;97319.88;12458764;23;20099;-77
2021/12/30 03:00:15;;;;;;;2.75;1.13;;;;;;;7.27;78.87;97319.47;12478594;23;20447;-77
2021/12/30 03:05:44;;;;;;;1.90;1.00;;;;;;;7.29;79.09;97319.59;12453619;23;20043;-78
2021/12/30 03:11:15;;;;;;;1.27;0.80;;;;;;;7.32;79.55;97299.00;12478283;23;20020;-78
2021/12/30 03:16:42;;;;;;;2.17;1.15;;;;;;;7.32;79.07;97310.09;12458862;23;20099;-77
2021/12/30 03:22:04;;;;;;;2.45;1.35;;;;;;;7.26;79.14;97315.22;12459753;23;20027;-77
2021/12/30 03:27:26;;;;;;;2.70;1.30;;;;;;;7.20;79.36;97336.97;12478025;23;20055;-77
2021/12/30 03:32:58;;;;;;;2.42;1.00;;;;;;;7.27;79.49;97353.50;12457610;23;20031;-77
2021/12/30 03:38:53;;;;;;;1.45;1.00;;;;;;;7.36;79.74;97357.59;12455137;23;20445;-78
2021/12/30 03:44:16;;;;;;;0.82;0.50;;;;;;;7.40;79.21;97363.44;12458341;23;20342;-78
2021/12/30 03:50:27;;;;;;;0.80;0.50;;;;;;;7.49;79.31;97368.28;12455383;23;20035;-78
2021/12/30 03:55:51;;;;;;;1.13;0.60;;;;;;;7.51;79.13;97385.09;12460093;23;20026;-78
2021/12/30 04:01:42;;;;;;;1.00;0.50;;;;;;;7.53;79.27;97385.25;12461874;23;20023;-78
2021/12/30 04:07:31;;;;;;;1.63;0.60;;;;;;;7.58;79.27;97389.03;12471879;23;20059;-78
2021/12/30 04:13:30;;;;;;;0.80;0.40;;;;;;;7.61;79.59;97412.88;12473360;23;20051;-79
2021/12/30 04:19:03;;;;;;;1.23;0.50;;;;;;;7.67;79.31;97422.38;12457809;23;20384;-78
2021/12/30 04:24:52;;;;;;;0.63;0.40;;;;;;;7.72;79.27;97434.53;12459745;23;20019;-78
2021/12/30 04:31:51;;;;;;;0.70;0.40;;;;;;;7.76;79.39;97432.06;12458582;23;20031;-78
2021/12/30 04:37:19;;;;;;;1.13;0.60;;;;;;;7.81;79.37;97446.97;12520678;23;20017;-78
2021/12/30 04:43:41;;;;;;;0.88;0.50;;;;;;;7.85;78.96;97473.00;12471953;23;20023;-78
2021/12/30 04:49:30;;;;;;;1.20;0.52;;;;;;;7.87;79.09;97461.31;12486465;23;20094;-78
2021/12/30 04:55:19;;;;;;;1.10;0.43;;;;;;;7.90;78.93;97494.22;12472730;23;20027;-78
2021/12/30 05:01:16;;;;;;;0.75;0.43;;;;;;;7.94;79.01;97482.69;12472447;23;20031;-77
2021/12/30 05:07:18;;;;;;;1.20;0.50;;;;;;;7.99;79.19;97501.09;12460988;23;20067;-79
2021/12/30 05:13:40;;;;;;;0.90;0.40;;;;;;;8.01;79.13;97502.00;12484969;23;20343;-79
2021/12/30 05:19:07;;;;;;;0.55;0.40;;;;;;;8.01;78.90;97512.38;12461335;23;20023;-79
2021/12/30 05:24:56;;;;;;;3.05;0.40;;;;;;;7.95;79.04;97540.47;12471302;23;20023;-79
2021/12/30 05:30:49;;;;;;;0.90;0.50;;;;;;;7.98;79.56;97535.78;12471800;23;20027;-79
2021/12/30 05:36:11;;;;;;;2.00;0.57;;;;;;;8.03;79.22;97540.31;12460290;23;20462;-79
2021/12/30 05:42:00;;;;;;;0.82;0.40;;;;;;;8.07;79.38;97554.50;12456307;23;20027;-78
2021/12/30 05:48:28;;;;;;;1.45;0.50;;;;;;;8.12;78.94;97553.50;12444087;23;20106;-79
2021/12/30 05:54:17;;;;;;;1.20;0.50;;;;;;;8.15;79.05;97574.59;12485841;23;20106;-79
2021/12/30 06:00:09;;;;;;;0.90;0.40;;;;;;;8.21;79.15;97583.38;12455882;23;20350;-80
2021/12/30 06:14:39;;;;;;;2.35;0.60;;;;;;;8.31;78.98;97614.72;12499306;23;20427;-78
2021/12/30 06:20:38;;;;;;;1.55;0.80;;;;;;;8.31;79.06;97620.28;12456569;23;20389;-78
2021/12/30 06:25:59;;;;;;;1.42;0.63;;;;;;;8.35;79.13;97638.59;12479763;23;20015;-78
2021/12/30 06:32:23;;;;;;;3.83;0.60;;;;;;;8.40;79.07;97638.31;12471588;23;20035;-78
2021/12/30 06:46:04;;;;;;;2.65;0.60;;;;;;;8.41;78.70;97641.84;12519190;23;20015;-79
2021/12/30 06:51:34;;;;;;;1.33;0.82;;;;;;;8.42;78.94;97626.63;12459393;23;20027;-78
2021/12/30 06:59:14;;;;;;;2.13;1.30;;;;;;;8.31;79.15;97650.13;12475620;23;20027;-78
2021/12/30 07:05:10;;;;;;;2.25;1.13;;;;;;;8.25;79.10;97650.41;12483244;23;20027;-78
2021/12/30 07:12:03;;;;;;;3.55;0.95;;;;;;;8.29;78.93;97656.25;12465692;23;20027;-78
2021/12/30 07:17:29;;;;;;;2.50;0.82;;;;;;;8.31;79.20;97662.00;12501136;23;20479;-78
2021/12/30 07:23:51;;;;;;;2.22;1.02;;;;;;;8.41;79.02;97672.44;12457695;23;20047;-78
2021/12/30 07:30:45;;;;;;;3.05;0.90;;;;;;;8.52;79.10;97678.16;12499846;23;20027;-78
2021/12/30 07:36:41;;;;;;;3.35;1.20;;;;;;;8.66;78.88;97692.38;12521202;23;20023;-78
2021/12/30 07:42:34;;;;;;;1.90;1.00;;;;;;;8.77;78.57;97702.22;12462678;23;20019;-78
2021/12/30 07:48:33;;;;;;;2.67;1.30;;;;;;;8.84;78.57;97713.22;12463463;23;20024;-78
2021/12/30 07:53:56;;;;;;;2.80;1.25;;;;;;;8.89;78.38;97708.69;12501377;23;20050;-77
2021/12/30 07:59:23;;;;;;;2.40;1.23;;;;;;;8.97;78.25;97719.66;12461128;23;20019;-77
2021/12/30 08:05:45;;;;;;;4.18;1.40;;;;;;;9.14;78.47;97733.44;12472319;23;20056;-78
2021/12/30 08:11:06;;;;;;;3.00;1.60;;;;;;;9.41;78.09;97745.19;12466020;23;20019;-77
2021/12/30 08:17:33;;;;;;;3.75;1.60;;;;;;;9.62;77.24;97735.47;12462225;23;20015;-77
2021/12/30 08:23:03;;;;;;;4.05;1.60;;;;;;;10.03;76.85;97731.41;12502916;23;20025;-80
2021/12/30 08:28:56;;;;;;;3.35;1.38;;;;;;;10.30;76.20;97741.63;12461754;23;20094;-78
2021/12/30 08:34:30;;;;;;;3.83;1.10;;;;;;;10.34;76.30;97746.75;12501618;23;20086;-76
2021/12/30 08:40:02;;;;;;;2.78;1.25;;;;;;;10.64;75.63;97746.00;12466834;23;20030;-76
2021/12/30 08:45:51;;;;;;;4.40;1.33;;;;;;;11.31;73.95;97749.69;12479362;23;20007;-85
2021/12/30 08:51:22;;;;;;;3.78;1.20;;;;;;;13.03;72.14;97751.13;12663037;23;20060;-78
2021/12/30 08:56:43;;;;;;;2.28;1.10;;;;;;;12.84;71.44;97757.03;12646334;23;20338;-81
2021/12/30 09:02:05;;;;;;;3.83;1.50;;;;;;;15.26;68.24;97753.25;12667939;23;20370;-80
2021/12/30 09:07:28;;;;;;;2.95;1.15;;;;;;;18.01;62.93;97766.09;12645537;23;20029;-80
2021/12/30 09:13:26;;;;;;;4.00;1.30;;;;;;;17.42;60.85;97777.84;12641393;23;20049;-77
2021/12/30 09:19:18;;;;;;;3.92;1.50;;;;;;;15.50;63.33;97767.03;12654585;23;20030;-77
2021/12/30 09:24:44;;;;;;;2.78;1.20;;;;;;;15.50;63.41;97761.41;12651505;23;20018;-80
2021/12/30 09:30:07;;;;;;;2.58;0.90;;;;;;;14.00;64.35;97764.31;12700466;23;20065;-82
2021/12/30 09:35:32;;;;;;;4.60;1.58;;;;;;;13.02;66.33;97754.53;12711682;23;20044;-82
2021/12/30 09:40:57;;;;;;;3.35;1.33;;;;;;;12.22;67.09;97780.63;12705488;23;20013;-83
2021/12/30 09:46:18;;;;;;;5.32;1.40;;;;;;;11.58;68.18;97771.66;12662085;23;20014;-83
2021/12/30 09:51:41;;;;;;;3.42;1.20;;;;;;;11.36;68.81;97773.75;12680602;23;20025;-79
2021/12/30 09:57:02;;;;;;;4.25;1.20;;;;;;;11.19;69.34;97760.78;12662688;23;20433;-81
2021/12/30 10:02:23;;;;;;;4.25;1.10;;;;;;;11.13;69.49;97752.03;12678532;23;20429;-81
2021/12/30 10:07:44;;;;;;;4.72;1.02;;;;;;;11.02;69.64;97759.00;12674604;23;20022;-81
2021/12/30 10:13:24;;;;;;;4.78;1.05;;;;;;;10.96;69.37;97766.97;12656304;23;20017;-81
2021/12/30 10:18:55;;;;;;;4.38;1.17;;;;;;;10.93;69.85;97765.38;12679466;23;20025;-82
2021/12/30 10:24:16;;;;;;;3.58;1.00;;;;;;;10.91;70.06;97770.84;12655092;23;20018;-81
2021/12/30 10:30:06;;;;;;;5.80;1.50;;;;;;;10.82;70.31;97772.38;12671269;23;20038;-81
2021/12/30 10:35:57;;;;;;;3.63;0.90;;;;;;;10.75;69.98;97776.06;12673483;23;20077;-81
2021/12/30 10:41:21;;;;;;;3.60;0.80;;;;;;;10.67;70.43;97760.84;12653606;23;20014;-80
2021/12/30 10:46:42;;;;;;;5.25;0.85;;;;;;;10.59;71.13;97761.75;12668849;23;20022;-80
2021/12/30 10:52:05;;;;;;;4.00;0.98;;;;;;;10.57;71.10;97761.63;12706330;23;20022;-81
2021/12/30 10:57:29;;;;;;;4.53;1.00;;;;;;;10.55;71.05;97760.75;12768665;23;20029;-85
2021/12/30 11:10:41;;;;;;;6.30;1.48;;;;;;;10.51;71.64;97724.19;12789736;23;19912;-88
2021/12/30 11:16:03;;;;;;;5.70;1.95;;;;;;;10.56;71.55;97715.50;12752446;23;20017;-88
2021/12/30 11:21:38;;;;;;;3.65;0.80;;;;;;;10.62;71.63;97708.88;12747701;23;20025;-89
2021/12/30 11:26:59;;;;;;;2.25;0.77;;;;;;;10.67;71.64;97702.94;12753261;23;20025;-86
2021/12/30 11:32:22;;;;;;;2.58;0.82;;;;;;;10.70;72.05;97695.44;12733347;23;20038;-86
2021/12/30 11:37:45;;;;;;;2.58;0.65;;;;;;;10.76;72.18;97681.88;12768121;23;20002;-85
2021/12/30 11:43:11;;;;;;;2.83;0.50;;;;;;;10.88;72.23;97688.25;12732468;23;20081;-85
2021/12/30 11:48:38;;;;;;;2.42;0.82;;;;;;;10.91;72.52;97703.09;12716427;23;20029;-80
2021/12/30 11:54:39;;;;;;;2.28;0.93;;;;;;;10.90;73.05;97705.13;12682642;23;20437;-80
2021/12/30 12:00:21;;;;;;;2.88;0.90;;;;;;;10.93;73.04;97690.00;12715348;23;20077;-79
2021/12/30 12:05:42;;;;;;;4.00;1.02;;;;;;;10.89;73.60;97706.47;12765966;23;20016;-78
2021/12/30 12:11:12;;;;;;;3.45;0.70;;;;;;;10.91;73.69;97692.66;12778234;23;20013;-79
2021/12/30 12:16:53;;;;;;;2.17;0.70;;;;;;;10.87;74.16;97698.69;12779956;23;20017;-78
2021/12/30 12:22:17;;;;;;;2.58;0.75;;;;;;;10.81;74.34;97706.69;12741175;23;20459;-79
2021/12/30 12:27:59;;;;;;;3.20;1.00;;;;;;;10.79;74.73;97708.59;12782305;23;20017;-79
2021/12/30 12:33:34;;;;;;;2.63;1.00;;;;;;;10.77;75.45;97706.41;12781791;23;20013;-79
2021/12/30 12:38:57;;;;;;;3.00;1.23;;;;;;;10.82;75.52;97699.03;12755206;23;20028;-80
2021/12/30 12:44:21;;;;;;;4.53;1.90;;;;;;;10.79;75.74;97708.59;12765433;23;20436;-81
2021/12/30 12:49:43;;;;;;;;;;;;;;;10.75;76.31;97709.06;12776180;23;20077;-81
2021/12/30 12:55:07;;;;;;;4.00;1.90;;;;;;;10.70;76.54;97701.00;12775354;23;19916;-80
2021/12/30 13:00:30;;;;;;;3.25;1.67;;;;;;;10.75;77.28;97699.97;12766031;23;20020;-80
2021/12/30 13:06:07;;;;;;;4.05;1.52;;;;;;;10.78;77.20;97702.28;12784912;23;20052;-80
2021/12/30 13:11:31;;;;;;;3.13;1.40;;;;;;;10.81;77.67;97694.78;12763652;23;20328;-80
2021/12/30 13:16:55;;;;;;;2.40;1.40;;;;;;;10.87;77.53;97701.47;12761948;23;20075;-80
2021/12/30 13:22:21;;;;;;;4.47;1.13;;;;;;;10.98;77.42;97702.13;12782197;23;20321;-80
2021/12/30 13:28:13;;;;;;;3.85;1.75;;;;;;;10.99;77.49;97715.50;12774599;23;20332;-80
2021/12/30 13:34:03;;;;;;;2.70;1.30;;;;;;;11.00;77.90;97711.41;12758704;23;20025;-79
2021/12/30 13:39:33;;;;;;;5.05;1.25;;;;;;;11.01;78.12;97701.69;12781827;23;20041;-83
2021/12/30 13:44:57;;;;;;;2.57;1.30;;;;;;;11.00;78.25;97700.22;12810917;23;20017;-81
2021/12/30 13:50:19;;;;;;;3.05;1.33;;;;;;;11.04;78.29;97699.75;12786952;23;20083;-81
2021/12/30 13:55:46;;;;;;;2.97;1.30;;;;;;;11.10;78.09;97706.47;12805453;23;20044;-82
2021/12/30 14:01:15;;;;;;;3.38;1.02;;;;;;;11.18;78.34;97704.19;12802501;23;20021;-84
2021/12/30 14:06:40;;;;;;;1.55;0.77;;;;;;;11.26;78.14;97709.56;12810721;23;20021;-82
2021/12/30 14:12:09;;;;;;;2.08;0.70;;;;;;;11.28;78.10;97698.50;12806549;23;20017;-83
2021/12/30 14:17:30;;;;;;;1.33;0.70;;;;;;;11.26;77.97;97703.25;12785798;23;20040;-83
2021/12/30 14:22:51;;;;;;;1.40;0.80;;;;;;;11.24;78.06;97711.50;12802712;23;20017;-79
2021/12/30 14:28:18;;;;;;;1.30;0.60;;;;;;;11.23;78.65;97710.03;12787930;23;20045;-86
2021/12/30 14:33:41;;;;;;;1.70;0.88;;;;;;;11.20;78.62;97716.84;12813820;23;20044;-86
2021/12/30 14:39:19;;;;;;;1.53;0.77;;;;;;;11.18;78.46;97720.94;12834953;23;20052;-84
2021/12/30 14:45:11;;;;;;;1.38;0.60;;;;;;;11.15;78.86;97730.53;12795760;23;20021;-85
2021/12/30 14:50:33;;;;;;;1.63;1.00;;;;;;;11.13;78.91;97733.19;12797112;23;20028;-85
2021/12/30 14:55:54;;;;;;;1.80;0.70;;;;;;;11.11;79.06;97733.06;12793386;23;20044;-85
2021/12/30 15:01:15;;;;;;;2.83;0.57;;;;;;;11.11;79.26;97733.06;12810644;23;20013;-85
2021/12/30 15:06:37;;;;;;;1.30;0.55;;;;;;;11.10;79.13;97734.41;12815756;23;20045;-83
2021/12/30 15:12:00;;;;;;;1.27;0.68;;;;;;;11.05;79.46;97746.63;12854888;23;20020;-83
2021/12/30 15:29:58;;;;;;;1.90;0.63;;;;;;;10.85;79.85;97770.44;12783167;23;20068;-87
2021/12/30 15:35:39;;;;;;;1.45;0.60;;;;;;;10.78;80.08;97774.88;12837773;23;20024;-86
2021/12/30 15:41:09;;;;;;;1.83;0.60;;;;;;;10.77;80.54;97778.25;12839160;23;20024;-84
2021/12/30 15:46:33;;;;;;;1.50;0.80;;;;;;;10.75;80.52;97784.44;12856126;23;20001;-86
2021/12/30 15:52:09;;;;;;;1.23;0.70;;;;;;;10.81;80.75;97789.72;12841365;23;20005;-86
2021/12/30 15:57:31;;;;;;;1.92;0.85;;;;;;;10.85;80.63;97795.56;12808827;23;20001;-82
2021/12/30 16:03:04;;;;;;;1.38;0.70;;;;;;;10.92;80.63;97805.81;12813555;23;20004;-82
2021/12/30 16:08:27;;;;;;;2.17;0.73;;;;;;;10.99;80.71;97816.03;12826532;23;20336;-82
2021/12/30 16:13:51;;;;;;;1.88;1.02;;;;;;;11.06;80.76;97812.34;12788099;23;20013;-78
2021/12/30 16:19:11;;;;;;;1.85;0.70;;;;;;;11.15;80.16;97811.53;12832857;23;20032;-84
2021/12/30 16:24:35;;;;;;;2.33;0.90;;;;;;;11.20;80.37;97823.00;12798019;23;20005;-84
2021/12/30 16:29:56;;;;;;;1.77;0.85;;;;;;;11.26;80.49;97826.91;12804242;23;20021;-84
2021/12/30 16:35:17;;;;;;;3.70;1.17;;;;;;;11.34;80.27;97823.94;12817710;23;20021;-84
2021/12/30 16:41:07;;;;;;;3.08;1.20;;;;;;;11.38;80.22;97829.78;12843939;23;20009;-83
2021/12/30 16:46:29;;;;;;;2.50;1.20;;;;;;;11.41;80.29;97846.09;12837483;23;20032;-84
2021/12/30 16:51:50;;;;;;;2.47;1.20;;;;;;;11.44;80.39;97849.75;12809903;23;20028;-84
2021/12/30 17:03:28;;;;;;;2.88;0.80;;;;;;;11.47;80.33;97852.06;12597831;23;20009;-87
2021/12/30 17:21:22;;;;;;;1.33;0.65;;;;;;;11.27;80.49;97855.59;12816239;23;20021;-82
2021/12/30 17:26:42;;;;;;;2.75;1.00;;;;;;;11.14;80.74;97854.78;12800970;23;20029;-83
2021/12/30 17:32:32;;;;;;;2.45;1.25;;;;;;;11.00;81.00;97855.88;12817444;23;20082;-86
2021/12/30 17:37:57;;;;;;;1.60;0.90;;;;;;;10.91;81.27;97857.41;12813938;23;20079;-83
2021/12/30 17:43:18;;;;;;;2.05;1.10;;;;;;;10.81;81.63;97865.09;12852406;23;20016;-83
2021/12/30 17:48:41;;;;;;;2.37;1.20;;;;;;;10.78;81.55;97860.69;12796374;23;20028;-86
2021/12/30 17:54:02;;;;;;;2.88;0.75;;;;;;;10.76;81.88;97880.09;12852887;23;20021;-83
2021/12/30 17:59:23;;;;;;;2.97;0.85;;;;;;;10.76;81.94;97871.72;12835371;23;20008;-86
2021/12/30 18:04:45;;;;;;;1.98;0.80;;;;;;;10.82;81.94;97880.53;12836303;23;20024;-85
2021/12/30 18:10:07;;;;;;;2.35;1.00;;;;;;;10.82;82.02;97877.75;12792987;23;20051;-89
2021/12/30 18:15:28;;;;;;;1.85;0.80;;;;;;;10.81;82.05;97874.22;12813016;23;20029;-85
2021/12/30 18:20:50;;;;;;;2.90;1.08;;;;;;;10.82;82.04;97875.69;12770219;23;20021;-82
2021/12/30 18:26:11;;;;;;;2.05;0.50;;;;;;;10.84;81.96;97883.47;12834020;23;20044;-84
2021/12/30 18:31:33;;;;;;;1.30;0.50;;;;;;;10.84;82.10;97886.25;12837042;23;20007;-86
2021/12/30 18:36:55;;;;;;;1.42;0.75;;;;;;;10.87;82.12;97873.88;12831176;23;20012;-83
2021/12/30 18:42:16;;;;;;;2.22;0.60;;;;;;;10.86;82.05;97878.75;12823284;23;20032;-88
2021/12/30 18:47:39;;;;;;;2.25;0.68;;;;;;;10.91;82.13;97890.19;12815316;23;20027;-85
2021/12/30 18:53:03;;;;;;;1.45;0.63;;;;;;;10.97;82.08;97890.59;12815046;23;20005;-87
2021/12/30 18:58:25;;;;;;;1.40;0.68;;;;;;;10.95;81.99;97891.19;12834070;23;20057;-80
2021/12/30 19:03:47;;;;;;;2.75;0.88;;;;;;;11.04;82.12;97907.19;12850691;23;20041;-86
2021/12/30 19:09:11;;;;;;;1.00;0.52;;;;;;;11.21;82.14;97913.88;12824323;23;19997;-80
2021/12/30 19:14:32;;;;;;;1.20;0.67;;;;;;;11.40;81.73;97933.34;12873726;23;20036;-85
2021/12/30 19:19:53;;;;;;;1.10;0.50;;;;;;;11.52;81.54;97942.53;12918012;23;20739;-85
2021/12/30 19:25:16;;;;;;;1.20;0.70;;;;;;;11.60;81.22;97939.53;12876634;23;20040;-81
2021/12/30 20:08:35;;;;;;;1.90;0.73;;;;;;;11.62;80.52;97912.44;12784162;23;20159;-84
2021/12/30 20:13:59;;;;;;;1.25;0.40;;;;;;;11.61;80.69;97904.66;12795820;23;20052;-81
2021/12/30 20:19:20;;;;;;;2.42;0.90;;;;;;;11.54;80.40;97913.97;12719855;23;20060;-84
2021/12/30 20:24:42;;;;;;;1.27;0.57;;;;;;;11.51;80.33;97915.91;12638492;23;20032;-87
2021/12/30 20:30:10;;;;;;;1.52;0.70;;;;;;;11.51;80.27;97915.91;12791648;23;20011;-87
2021/12/30 20:35:33;;;;;;;2.78;0.60;;;;;;;11.52;80.08;97922.22;12816232;23;20024;-82
2021/12/30 20:40:55;;;;;;;1.10;0.55;;;;;;;11.54;79.69;97925.88;12712069;23;20001;-84
2021/12/30 20:46:17;;;;;;;1.35;0.43;;;;;;;11.43;79.92;97934.94;12857107;23;20052;-83
2021/12/30 20:51:39;;;;;;;0.73;0.43;;;;;;;11.41;79.52;97932.00;12815438;23;20017;-81
2021/12/30 20:57:01;;;;;;;0.93;0.40;;;;;;;11.41;79.73;97934.81;12817103;23;20060;-86
2021/12/30 21:02:23;;;;;;;0.70;0.40;;;;;;;11.38;79.61;97941.56;12834815;23;20012;-87
2021/12/30 21:07:47;;;;;;;0.82;0.40;;;;;;;11.41;79.31;97955.09;12816521;23;20107;-84
2021/12/30 21:13:11;;;;;;;0.90;0.30;;;;;;;11.43;79.31;97962.88;12854435;23;20017;-82
2021/12/30 21:18:34;;;;;;;1.05;0.40;;;;;;;11.44;79.08;97967.88;12834430;23;20088;-81
2021/12/30 21:23:57;;;;;;;1.05;0.50;;;;;;;11.45;79.14;97965.81;12824762;23;20017;-81
2021/12/30 21:29:19;;;;;;;1.05;0.50;;;;;;;11.43;79.32;97971.25;12787498;23;20024;-80
2021/12/30 21:41:47;;;;;;;1.33;0.52;;;;;;;11.35;79.41;97976.31;12867076;23;20072;-82
2021/12/30 21:47:08;;;;;;;2.03;0.65;;;;;;;11.35;79.43;97981.91;12851942;23;20041;-81
2021/12/30 21:52:29;;;;;;;1.75;0.50;;;;;;;11.34;79.54;97989.53;12874821;23;20036;-81
2021/12/30 21:57:52;;;;;;;0.98;0.43;;;;;;;11.35;79.47;97985.41;12850183;23;20020;-81
2021/12/30 22:03:13;;;;;;;1.52;0.45;;;;;;;11.40;79.36;97992.03;12846664;23;20044;-81
2021/12/30 22:08:34;;;;;;;2.13;0.50;;;;;;;11.44;79.53;97978.31;12831329;23;20000;-81
2021/12/30 22:13:55;;;;;;;1.90;0.38;;;;;;;11.47;79.18;97983.44;12816968;23;20028;-82
2021/12/30 22:19:16;;;;;;;1.05;0.50;;;;;;;11.48;79.28;97981.38;12794962;23;20041;-81
2021/12/30 22:24:39;;;;;;;1.80;0.50;;;;;;;11.47;79.24;97982.72;12857036;23;20020;-79
2021/12/30 22:30:04;;;;;;;1.00;0.40;;;;;;;11.47;79.04;97991.81;12837984;23;20021;-81
2021/12/30 22:35:33;;;;;;;1.42;0.50;;;;;;;11.47;79.21;97988.31;12865706;23;20040;-84
2021/12/30 22:40:54;;;;;;;0.93;0.40;;;;;;;11.52;78.92;98000.50;12878933;23;20008;-81
2021/12/30 22:46:16;;;;;;;1.60;0.55;;;;;;;11.47;78.74;97991.09;12898518;23;20024;-83
2021/12/30 22:51:38;;;;;;;1.20;0.47;;;;;;;11.47;78.81;97996.69;12877890;23;20016;-83
2021/12/30 22:56:59;;;;;;;1.80;0.35;;;;;;;11.40;78.84;97986.44;12896297;23;20099;-82
2021/12/30 23:02:20;;;;;;;1.00;0.40;;;;;;;11.35;78.97;97996.59;12879194;23;20336;-82
2021/12/30 23:07:41;;;;;;;1.35;0.47;;;;;;;11.30;79.15;97989.28;12871563;23;20016;-81
2021/12/30 23:13:35;;;;;;;1.08;0.40;;;;;;;11.20;79.15;98001.81;12879524;23;20024;-82
2021/12/30 23:18:55;;;;;;;3.42;0.30;;;;;;;11.14;79.08;98011.25;12863137;23;20070;-81
2021/12/30 23:24:16;;;;;;;1.73;0.40;;;;;;;11.08;79.29;98008.00;12861667;23;20063;-81
2021/12/30 23:29:42;;;;;;;0.75;0.30;;;;;;;11.08;79.47;98021.25;12837937;23;20083;-80
2021/12/30 23:35:16;;;;;;;0.55;0.30;;;;;;;11.10;79.34;98021.41;12845629;23;20067;-79
2021/12/30 23:40:45;;;;;;;1.80;0.40;;;;;;;11.11;79.49;98028.47;12862538;23;20020;-80
2021/12/30 23:46:13;;;;;;;0.85;0.30;;;;;;;11.16;79.27;98041.38;12822015;23;20027;-80
2021/12/30 23:52:01;;;;;;;0.88;0.30;;;;;;;11.07;79.33;98044.94;12816635;23;20398;-79
2021/12/30 23:57:25;;;;;;;1.52;0.30;;;;;;;11.05;79.37;98053.91;12821939;23;20037;-79
